Time;durP1;ratioP1;P1;durP2;ratioP2;P2;SDS_P1;SDS_P2;PMS_P1;PMS_P2;Temp;Humidity;BMP_temperature;BMP_pressure;BME280_temperature;BME280_humidity;BME280_pressure;Samples;Min_cycle;Max_cycle;Signal;HPM_P1;HPM_P2
2022/03/28 00:00:22;;;;;;;1.10;1.00;;;0.40;99.90;;;;;;4976119;28;20396;-74
2022/03/28 00:02:48;;;;;;;1.77;0.80;;;0.40;99.90;;;;;;4975898;28;20093;-74
2022/03/28 00:05:14;;;;;;;2.28;0.82;;;0.30;99.90;;;;;;4975701;28;20042;-74
2022/03/28 00:07:41;;;;;;;1.63;0.98;;;0.20;99.90;;;;;;4976119;28;20054;-74
2022/03/28 00:10:07;;;;;;;1.40;0.90;;;0.20;99.90;;;;;;4975987;28;20031;-74
2022/03/28 00:12:34;;;;;;;0.82;0.82;;;0.10;99.90;;;;;;4976024;28;20105;-74
2022/03/28 00:15:01;;;;;;;1.40;0.80;;;0.00;99.90;;;;;;4975736;28;20030;-74
2022/03/28 00:17:27;;;;;;;1.10;0.95;;;0.00;99.90;;;;;;4975798;28;20105;-74
2022/03/28 00:19:53;;;;;;;1.58;0.90;;;0.00;99.90;;;;;;4975814;28;20118;-74
2022/03/28 00:22:18;;;;;;;1.45;1.05;;;0.00;99.90;;;;;;4975199;28;20030;-74
2022/03/28 00:24:44;;;;;;;0.80;0.80;;;0.00;99.90;;;;;;4975695;28;20055;-74
2022/03/28 00:27:10;;;;;;;1.20;1.10;;;-0.10;99.90;;;;;;4975504;28;20022;-74
2022/03/28 00:29:36;;;;;;;1.55;0.90;;;0.00;99.90;;;;;;4975359;28;20031;-72
2022/03/28 00:32:01;;;;;;;3.15;0.95;;;0.00;99.90;;;;;;4975278;28;20026;-72
2022/03/28 00:34:27;;;;;;;1.10;0.90;;;-0.10;99.90;;;;;;4975517;28;20031;-72
2022/03/28 00:36:53;;;;;;;1.15;0.98;;;0.00;99.90;;;;;;4974866;28;20042;-72
2022/03/28 00:39:20;;;;;;;1.77;0.90;;;0.00;99.90;;;;;;4967301;28;20125;-72
2022/03/28 00:41:50;;;;;;;0.80;0.80;;;-0.10;99.90;;;;;;4955810;28;20027;-72
2022/03/28 00:44:16;;;;;;;1.50;1.15;;;-0.10;99.90;;;;;;4955900;28;20051;-72
2022/03/28 00:46:43;;;;;;;0.95;0.80;;;-0.10;99.90;;;;;;4956026;28;20118;-72
2022/03/28 00:49:09;;;;;;;2.05;0.90;;;-0.10;99.90;;;;;;4955648;28;20066;-72
2022/03/28 00:51:36;;;;;;;1.55;0.90;;;0.00;99.90;;;;;;4955957;28;20062;-72
2022/03/28 00:54:02;;;;;;;1.85;0.77;;;0.00;99.90;;;;;;4955752;28;20023;-72
2022/03/28 00:56:28;;;;;;;2.55;0.80;;;0.00;99.90;;;;;;4955385;28;20030;-72
2022/03/28 00:58:54;;;;;;;2.53;1.00;;;0.00;99.90;;;;;;4955908;28;20023;-72
2022/03/28 01:01:20;;;;;;;0.80;0.80;;;0.00;99.90;;;;;;4955303;28;20106;-73
2022/03/28 01:03:46;;;;;;;1.70;1.00;;;-0.10;99.90;;;;;;4955398;28;20115;-73
2022/03/28 01:06:12;;;;;;;1.17;0.80;;;-0.20;99.90;;;;;;4955276;28;20475;-73
2022/03/28 01:08:38;;;;;;;0.95;0.90;;;-0.20;99.90;;;;;;4955631;28;20031;-73
2022/03/28 01:11:08;;;;;;;1.05;1.00;;;-0.20;99.90;;;;;;4955314;29;20050;-73
2022/03/28 01:13:34;;;;;;;1.83;1.10;;;-0.20;99.90;;;;;;4955316;28;20050;-73
2022/03/28 01:16:01;;;;;;;2.80;0.95;;;-0.20;99.90;;;;;;4955250;28;20118;-73
2022/03/28 01:18:27;;;;;;;1.73;0.90;;;-0.30;99.90;;;;;;4955159;29;20026;-73
2022/03/28 01:20:56;;;;;;;1.00;0.90;;;-0.20;99.90;;;;;;4955508;28;20027;-73
2022/03/28 01:23:22;;;;;;;2.05;1.08;;;-0.20;99.90;;;;;;4953797;29;20050;-73
2022/03/28 01:25:51;;;;;;;1.20;1.02;;;-0.20;99.90;;;;;;4955302;28;20035;-73
2022/03/28 01:28:18;;;;;;;2.22;1.45;;;-0.20;99.90;;;;;;4955085;28;20106;-73
2022/03/28 01:30:44;;;;;;;1.83;1.40;;;-0.20;99.90;;;;;;4954955;28;20031;-72
2022/03/28 01:33:10;;;;;;;2.60;1.45;;;-0.20;99.90;;;;;;4954934;28;20479;-71
2022/03/28 01:35:40;;;;;;;1.65;1.13;;;-0.30;99.90;;;;;;4954757;28;20023;-71
2022/03/28 01:38:09;;;;;;;1.65;1.20;;;-0.30;99.90;;;;;;4954467;28;20047;-71
2022/03/28 01:40:37;;;;;;;2.33;1.50;;;-0.30;99.90;;;;;;4955130;28;20101;-71
2022/03/28 01:43:03;;;;;;;3.40;1.27;;;-0.30;99.90;;;;;;4955045;28;20023;-71
2022/03/28 01:45:30;;;;;;;4.85;1.50;;;-0.30;99.90;;;;;;4954464;28;20090;-71
2022/03/28 01:47:55;;;;;;;3.60;1.75;;;-0.30;99.90;;;;;;4954866;28;20034;-71
2022/03/28 01:50:22;;;;;;;3.10;1.63;;;-0.40;99.90;;;;;;4954806;29;20023;-72
2022/03/28 01:52:48;;;;;;;3.05;1.60;;;-0.50;99.90;;;;;;4953881;28;20039;-73
2022/03/28 01:55:14;;;;;;;1.55;1.35;;;-0.60;99.90;;;;;;4954457;29;20070;-73
2022/03/28 01:57:42;;;;;;;1.73;1.02;;;-0.70;99.90;;;;;;4954376;29;20034;-73
2022/03/28 02:00:13;;;;;;;1.73;1.10;;;-0.70;99.90;;;;;;4954679;28;20060;-72
2022/03/28 02:02:39;;;;;;;1.73;1.00;;;-0.80;99.90;;;;;;4954712;28;20027;-71
2022/03/28 02:05:06;;;;;;;1.58;1.08;;;-0.80;99.90;;;;;;4954341;29;20092;-71
2022/03/28 02:07:33;;;;;;;2.50;1.20;;;-0.90;99.90;;;;;;4954509;28;20487;-71
2022/03/28 02:09:59;;;;;;;2.13;1.20;;;-0.90;99.90;;;;;;4954288;28;20034;-71
2022/03/28 02:12:24;;;;;;;1.60;0.90;;;-0.90;99.90;;;;;;4954119;28;20023;-71
2022/03/28 02:14:50;;;;;;;2.28;1.15;;;-1.00;99.90;;;;;;4954482;28;20031;-71
2022/03/28 02:17:16;;;;;;;1.80;1.20;;;-1.00;99.90;;;;;;4954274;28;20019;-71
2022/03/28 02:19:41;;;;;;;2.83;1.08;;;-1.00;99.90;;;;;;4954480;28;20054;-73
2022/03/28 02:22:07;;;;;;;2.38;1.02;;;-1.00;99.90;;;;;;4954267;29;20253;-73
2022/03/28 02:56:02;;;;;;;1.02;0.90;;;-1.50;99.90;;;;;;4953132;29;20126;-74
2022/03/28 02:58:28;;;;;;;4.07;1.10;;;-1.50;99.90;;;;;;4953579;28;20061;-74
2022/03/28 03:00:54;;;;;;;1.00;1.00;;;-1.50;99.90;;;;;;4953981;29;20038;-74
2022/03/28 03:37:07;;;;;;;1.75;1.13;;;-1.60;99.90;;;;;;6052008;23;20047;-69
2022/03/28 03:39:35;;;;;;;1.20;1.00;;;-1.50;99.90;;;;;;4952913;28;20494;-69
2022/03/28 03:42:01;;;;;;;1.83;0.88;;;-1.50;99.90;;;;;;4957186;29;20027;-70
2022/03/28 03:44:27;;;;;;;1.17;0.90;;;-1.60;99.90;;;;;;4957215;29;20035;-71
2022/03/28 03:46:53;;;;;;;1.17;1.08;;;-1.60;99.90;;;;;;4957218;29;20363;-71
2022/03/28 03:49:18;;;;;;;1.10;1.00;;;-1.70;99.90;;;;;;4957073;29;20047;-71
2022/03/28 03:51:44;;;;;;;1.10;1.00;;;-1.70;99.90;;;;;;4956844;29;20526;-71
2022/03/28 03:54:11;;;;;;;2.47;0.90;;;-1.70;99.90;;;;;;4957007;29;20027;-72
2022/03/28 03:56:37;;;;;;;1.45;1.13;;;-1.80;99.90;;;;;;4956970;29;20382;-72
2022/03/28 03:59:04;;;;;;;3.92;1.25;;;-1.80;99.90;;;;;;4956929;29;20439;-72
2022/03/28 04:01:30;;;;;;;1.13;1.02;;;-1.90;99.90;;;;;;4956693;29;20112;-72
2022/03/28 04:03:56;;;;;;;2.72;1.20;;;-1.90;99.90;;;;;;4956335;29;20047;-72
2022/03/28 04:06:22;;;;;;;3.13;1.30;;;-1.90;99.90;;;;;;4956571;29;20031;-73
2022/03/28 04:08:48;;;;;;;2.38;0.98;;;-2.00;99.90;;;;;;4956661;29;20030;-73
2022/03/28 04:11:14;;;;;;;1.88;0.90;;;-2.00;99.90;;;;;;4956721;29;20023;-73
2022/03/28 04:13:40;;;;;;;1.10;1.00;;;-2.00;99.90;;;;;;4956542;29;20134;-74
2022/03/28 04:16:06;;;;;;;1.70;1.00;;;-2.00;99.90;;;;;;4938652;29;20522;-73
2022/03/28 04:18:32;;;;;;;1.02;0.90;;;-2.00;99.90;;;;;;4956558;29;20023;-73
2022/03/28 04:20:58;;;;;;;1.42;1.00;;;-2.00;99.90;;;;;;4956477;29;20086;-73
2022/03/28 04:23:25;;;;;;;0.93;0.90;;;-2.10;99.90;;;;;;4956188;29;20479;-73
2022/03/28 04:25:51;;;;;;;3.33;0.85;;;-2.10;99.90;;;;;;4955974;29;20077;-73
2022/03/28 04:28:17;;;;;;;1.60;0.93;;;-2.20;99.90;;;;;;4956138;29;20063;-71
2022/03/28 04:30:43;;;;;;;1.00;1.00;;;-2.20;99.90;;;;;;4956170;29;20065;-70
2022/03/28 04:33:09;;;;;;;1.48;0.90;;;-2.20;99.90;;;;;;4955949;29;20054;-71
2022/03/28 04:35:39;;;;;;;1.48;1.08;;;-2.20;99.90;;;;;;4956076;29;20023;-69
2022/03/28 04:38:06;;;;;;;1.10;0.90;;;-2.20;99.90;;;;;;4955885;28;20069;-74
2022/03/28 04:40:33;;;;;;;1.60;0.90;;;-2.10;99.90;;;;;;4955965;28;20467;-72
2022/03/28 04:42:59;;;;;;;2.67;1.05;;;-2.00;99.90;;;;;;4955503;28;20035;-74
2022/03/28 04:45:26;;;;;;;1.85;1.00;;;-2.00;99.90;;;;;;4954417;29;20379;-73
2022/03/28 04:47:51;;;;;;;2.42;1.35;;;-2.20;99.90;;;;;;4955702;28;20051;-78
2022/03/28 04:50:17;;;;;;;1.17;0.98;;;-2.30;99.90;;;;;;4958460;28;20428;-73
2022/03/28 04:52:43;;;;;;;1.83;1.08;;;-2.40;99.90;;;;;;4974402;28;20019;-74
2022/03/28 04:55:09;;;;;;;1.13;1.02;;;-2.50;99.90;;;;;;4974097;28;20038;-73
2022/03/28 04:57:35;;;;;;;3.28;1.30;;;-2.50;99.90;;;;;;4974168;28;20030;-74
2022/03/28 05:00:01;;;;;;;3.40;1.17;;;-2.50;99.90;;;;;;4974220;28;20018;-74
2022/03/28 05:02:26;;;;;;;5.05;1.30;;;-2.50;99.90;;;;;;4974069;28;20609;-74
2022/03/28 05:04:52;;;;;;;2.70;1.15;;;-2.60;99.90;;;;;;4974144;28;20043;-74
2022/03/28 05:07:25;;;;;;;1.00;1.00;;;-2.60;99.90;;;;;;4970699;28;20458;-71
2022/03/28 05:09:53;;;;;;;5.57;1.30;;;-2.60;99.90;;;;;;4973743;28;20520;-71
2022/03/28 05:12:22;;;;;;;3.40;1.20;;;-2.70;99.90;;;;;;4973752;28;20026;-69
2022/03/28 05:14:48;;;;;;;1.45;1.00;;;-2.70;99.90;;;;;;4973879;28;20027;-69
2022/03/28 05:17:15;;;;;;;6.47;1.30;;;-2.70;99.90;;;;;;4974160;28;20023;-69
2022/03/28 05:19:42;;;;;;;2.85;1.27;;;-2.70;99.90;;;;;;4973913;28;20077;-69
2022/03/28 05:22:08;;;;;;;1.00;0.90;;;-2.70;99.90;;;;;;4974121;28;20026;-76
2022/03/28 05:24:34;;;;;;;1.80;1.10;;;-2.70;99.90;;;;;;4972900;28;20117;-72
2022/03/28 05:27:00;;;;;;;1.35;1.10;;;-2.90;99.90;;;;;;4973093;28;20073;-73
2022/03/28 05:29:26;;;;;;;2.33;1.25;;;-2.90;99.90;;;;;;4974501;28;20037;-70
2022/03/28 05:31:51;;;;;;;2.13;1.08;;;-2.90;99.90;;;;;;4972923;28;20023;-71
2022/03/28 05:34:17;;;;;;;1.30;1.20;;;-2.50;99.90;;;;;;4974245;28;20030;-72
2022/03/28 05:36:45;;;;;;;3.03;1.25;;;-2.60;99.90;;;;;;4974118;28;20382;-70
2022/03/28 05:39:11;;;;;;;2.40;1.20;;;-2.70;99.90;;;;;;4973709;28;20121;-71
2022/03/28 05:41:37;;;;;;;1.42;1.00;;;-2.70;99.90;;;;;;4974111;28;20023;-70
2022/03/28 05:44:03;;;;;;;5.65;1.20;;;-2.80;99.90;;;;;;4973965;28;20567;-70
2022/03/28 05:46:29;;;;;;;1.75;1.20;;;-2.80;99.90;;;;;;4973996;28;20039;-70
2022/03/28 05:48:55;;;;;;;1.75;1.30;;;-2.80;99.90;;;;;;4973920;28;20118;-71
2022/03/28 05:51:21;;;;;;;2.58;1.20;;;-2.90;99.90;;;;;;4973824;28;20393;-73
2022/03/28 05:53:47;;;;;;;2.13;1.35;;;-2.10;99.90;;;;;;4973804;28;20041;-72
2022/03/28 05:56:13;;;;;;;2.65;1.20;;;-1.40;99.90;;;;;;4973761;28;20038;-71
2022/03/28 05:58:38;;;;;;;1.38;1.10;;;-1.80;99.90;;;;;;4973683;28;20625;-71
2022/03/28 06:01:04;;;;;;;1.20;1.10;;;-0.50;99.90;;;;;;4973678;28;20043;-75
2022/03/28 06:03:30;;;;;;;4.82;1.33;;;-1.10;99.90;;;;;;4974044;28;20034;-73
2022/03/28 06:05:56;;;;;;;1.13;1.05;;;-1.60;99.90;;;;;;4973493;28;20043;-70
2022/03/28 06:08:22;;;;;;;1.20;1.10;;;-1.70;99.90;;;;;;4973627;28;20022;-70
2022/03/28 06:10:48;;;;;;;2.75;1.20;;;-2.10;99.90;;;;;;4973543;28;20058;-70
2022/03/28 06:13:16;;;;;;;1.80;1.00;;;-2.30;99.90;;;;;;4973797;28;20126;-75
2022/03/28 06:15:42;;;;;;;2.08;1.10;;;-2.40;99.90;;;;;;4971116;28;20077;-74
2022/03/28 06:18:08;;;;;;;2.17;1.10;;;-2.50;99.90;;;;;;4957026;28;20031;-71
2022/03/28 06:20:34;;;;;;;1.30;1.20;;;-2.70;99.90;;;;;;4967638;28;20026;-69
2022/03/28 06:23:02;;;;;;;1.60;1.10;;;-2.50;99.90;;;;;;4962487;28;20062;-70
2022/03/28 06:25:29;;;;;;;3.42;1.30;;;-2.60;99.90;;;;;;4972552;28;20046;-70
2022/03/28 06:27:55;;;;;;;5.90;1.00;;;-2.60;99.90;;;;;;4963750;28;20023;-72
2022/03/28 06:30:21;;;;;;;1.65;0.95;;;-2.60;99.90;;;;;;4965929;28;20052;-68
2022/03/28 06:32:47;;;;;;;3.97;1.42;;;-2.60;99.90;;;;;;4957075;28;20027;-70
2022/03/28 06:35:13;;;;;;;3.95;1.20;;;-2.70;99.90;;;;;;4956973;28;20038;-75
2022/03/28 06:37:39;;;;;;;3.55;1.23;;;-2.80;99.90;;;;;;4965497;28;20055;-75
2022/03/28 06:40:05;;;;;;;3.20;1.15;;;-2.80;99.90;;;;;;4963828;28;20470;-75
2022/03/28 06:42:32;;;;;;;1.73;1.05;;;-2.80;99.90;;;;;;4958471;28;20039;-72
2022/03/28 06:44:59;;;;;;;1.00;1.00;;;-2.80;99.90;;;;;;4969039;28;20035;-76
2022/03/28 06:47:25;;;;;;;1.88;1.17;;;-2.90;99.90;;;;;;4958076;28;20455;-68
2022/03/28 06:49:51;;;;;;;2.40;1.40;;;-3.00;99.90;;;;;;4963909;28;20038;-67
2022/03/28 06:52:17;;;;;;;1.45;1.35;;;-2.90;99.90;;;;;;4965426;28;20019;-68
2022/03/28 06:54:43;;;;;;;4.07;1.17;;;-3.00;99.90;;;;;;4957311;28;20424;-67
2022/03/28 06:57:09;;;;;;;5.70;1.42;;;-3.00;99.90;;;;;;4969335;28;20540;-67
2022/03/28 06:59:35;;;;;;;2.75;1.20;;;-3.00;99.90;;;;;;4959303;28;20019;-67
2022/03/28 07:02:01;;;;;;;3.13;1.40;;;-3.00;99.90;;;;;;4961205;28;20386;-70
2022/03/28 07:04:26;;;;;;;2.80;1.20;;;-3.00;99.90;;;;;;4966142;28;20467;-70
2022/03/28 07:06:52;;;;;;;4.57;1.35;;;-3.00;99.90;;;;;;4954730;28;20034;-68
2022/03/28 07:09:18;;;;;;;4.22;1.60;;;-3.10;99.90;;;;;;4968121;28;20016;-68
2022/03/28 07:11:45;;;;;;;2.28;1.40;;;-3.00;99.90;;;;;;4958822;28;20034;-68
2022/03/28 07:14:11;;;;;;;1.25;1.15;;;-3.00;99.90;;;;;;4965078;28;20027;-67
2022/03/28 07:16:37;;;;;;;3.05;1.10;;;-3.00;99.90;;;;;;4967862;28;20061;-67
2022/03/28 07:19:04;;;;;;;2.20;1.50;;;-3.00;99.90;;;;;;4964315;28;20420;-68
2022/03/28 07:21:29;;;;;;;2.22;1.38;;;-3.10;99.90;;;;;;4971601;28;20027;-67
2022/03/28 07:23:55;;;;;;;1.17;1.10;;;-3.10;99.90;;;;;;4968142;28;20398;-67
2022/03/28 07:26:22;;;;;;;3.00;1.30;;;-3.10;99.90;;;;;;4963947;28;20045;-68
2022/03/28 07:28:48;;;;;;;4.03;1.40;;;-3.20;99.90;;;;;;4971924;28;20058;-70
2022/03/28 07:31:14;;;;;;;1.50;1.40;;;-3.20;99.90;;;;;;4968386;28;20036;-67
2022/03/28 07:33:41;;;;;;;2.30;1.45;;;-3.20;99.90;;;;;;4959491;28;20061;-69
2022/03/28 07:36:08;;;;;;;2.30;1.10;;;-3.30;99.90;;;;;;4971111;28;20019;-70
2022/03/28 07:38:34;;;;;;;1.80;1.10;;;-3.20;99.90;;;;;;4971048;28;20047;-70
2022/03/28 07:41:02;;;;;;;2.15;1.30;;;-3.20;99.90;;;;;;4968371;28;20011;-69
2022/03/28 07:43:27;;;;;;;3.15;1.27;;;-3.30;99.90;;;;;;4967030;28;20051;-69
2022/03/28 07:45:54;;;;;;;1.40;1.30;;;-3.40;99.90;;;;;;4971127;28;20086;-72
2022/03/28 07:48:23;;;;;;;1.85;1.38;;;-3.40;99.90;;;;;;4972106;28;20023;-71
2022/03/28 07:50:50;;;;;;;2.33;1.20;;;-3.30;99.90;;;;;;4974569;28;20437;-73
2022/03/28 07:53:16;;;;;;;2.22;1.42;;;-3.10;99.90;;;;;;4975514;28;20510;-74
2022/03/28 07:55:42;;;;;;;1.20;1.10;;;-2.60;99.90;;;;;;4975973;28;20063;-76
2022/03/28 07:58:09;;;;;;;1.60;1.50;;;-2.50;99.90;;;;;;4975928;28;20029;-76
2022/03/28 08:00:35;;;;;;;1.63;1.20;;;-2.80;99.90;;;;;;4976170;28;20489;-76
2022/03/28 08:03:01;;;;;;;2.22;1.15;;;-2.90;99.90;;;;;;4976094;28;20035;-76
2022/03/28 08:05:27;;;;;;;1.90;1.20;;;-2.90;99.90;;;;;;4975933;28;20031;-76
2022/03/28 08:07:54;;;;;;;2.70;1.50;;;-3.00;99.90;;;;;;4975785;28;20026;-76
2022/03/28 08:10:21;;;;;;;1.70;1.20;;;-3.10;99.90;;;;;;4975826;28;20033;-76
2022/03/28 08:12:47;;;;;;;2.63;1.30;;;-3.10;99.90;;;;;;4975479;28;20035;-76
2022/03/28 08:15:16;;;;;;;2.35;1.33;;;-3.20;99.90;;;;;;4978551;28;20030;-74
2022/03/28 08:17:42;;;;;;;1.40;1.10;;;-3.20;99.90;;;;;;4979817;28;20018;-76
2022/03/28 08:20:10;;;;;;;2.28;1.30;;;-3.20;99.90;;;;;;4975504;28;20030;-76
2022/03/28 08:22:37;;;;;;;2.63;1.35;;;-3.30;99.90;;;;;;4975593;28;20035;-76
2022/03/28 08:25:04;;;;;;;2.33;1.60;;;-3.40;99.90;;;;;;4975150;28;20091;-76
2022/03/28 08:27:30;;;;;;;2.45;1.33;;;-3.40;99.90;;;;;;4975595;28;20478;-77
2022/03/28 08:29:55;;;;;;;2.08;1.02;;;-3.40;99.90;;;;;;4975145;28;20069;-76
2022/03/28 08:32:21;;;;;;;3.28;1.38;;;-3.40;99.90;;;;;;4975684;28;20134;-76
2022/03/28 08:34:48;;;;;;;6.25;1.90;;;-3.40;99.90;;;;;;4975395;28;20105;-77
2022/03/28 08:37:18;;;;;;;1.30;1.20;;;-3.40;99.90;;;;;;4973599;28;20027;-76
2022/03/28 08:39:45;;;;;;;1.20;1.10;;;-3.40;99.90;;;;;;4975870;28;20043;-77
2022/03/28 08:42:15;;;;;;;6.47;1.50;;;-3.50;99.90;;;;;;4975274;28;20081;-77
2022/03/28 08:44:41;;;;;;;1.77;1.05;;;-3.50;99.90;;;;;;4975554;28;20042;-77
2022/03/28 08:47:09;;;;;;;1.33;1.23;;;-3.40;99.90;;;;;;4975131;28;20088;-77
2022/03/28 08:49:38;;;;;;;1.48;1.20;;;-3.40;99.90;;;;;;4975059;28;20574;-76
2022/03/28 08:52:07;;;;;;;2.22;1.17;;;-3.30;99.90;;;;;;4974979;28;20023;-76
2022/03/28 08:54:33;;;;;;;3.60;1.45;;;-3.30;99.90;;;;;;4975188;28;20058;-77
2022/03/28 08:56:59;;;;;;;1.80;1.33;;;-3.20;99.90;;;;;;4973625;28;20027;-74
2022/03/28 08:59:24;;;;;;;1.40;1.30;;;-3.30;99.90;;;;;;4974904;28;20073;-77
2022/03/28 09:01:50;;;;;;;0.98;0.98;;;-3.30;99.90;;;;;;4974752;28;20023;-75
2022/03/28 09:04:16;;;;;;;2.83;1.48;;;-3.40;99.90;;;;;;4978202;28;20023;-75
2022/03/28 09:06:44;;;;;;;1.90;1.15;;;-3.50;99.90;;;;;;4976374;28;20058;-76
2022/03/28 09:09:25;;;;;;;2.17;1.45;;;-3.50;99.90;;;;;;4974579;28;20057;-77
2022/03/28 09:11:54;;;;;;;;;;;-3.50;99.90;;;;;;4975240;28;20478;-76
2022/03/28 09:14:30;;;;;;;1.88;1.20;;;-3.50;99.90;;;;;;4974727;28;19906;-76
2022/03/28 09:17:03;;;;;;;1.55;1.10;;;-3.50;99.90;;;;;;4973382;28;20113;-77
2022/03/28 09:19:55;;;;;;;1.75;1.30;;;-3.40;99.90;;;;;;4974419;28;20118;-77
2022/03/28 09:22:30;;;;;;;1.40;1.30;;;-3.30;99.90;;;;;;4974960;28;20033;-76
2022/03/28 09:24:59;;;;;;;1.30;1.20;;;-3.20;99.90;;;;;;4972645;28;20023;-76
2022/03/28 09:27:29;;;;;;;2.00;1.30;;;-3.30;99.90;;;;;;4974161;28;20026;-76
2022/03/28 09:30:13;;;;;;;1.83;1.10;;;-3.40;99.90;;;;;;4974242;28;20030;-74
2022/03/28 09:32:47;;;;;;;2.88;1.40;;;-3.20;99.90;;;;;;4974311;28;20049;-76
2022/03/28 09:35:19;;;;;;;3.10;1.38;;;-1.30;99.90;;;;;;4973776;28;20018;-71
2022/03/28 09:38:02;;;;;;;1.30;1.20;;;-1.80;99.90;;;;;;4973978;28;20043;-72
2022/03/28 09:40:42;;;;;;;1.23;1.10;;;-2.50;99.90;;;;;;4974319;28;20066;-72
2022/03/28 09:43:29;;;;;;;1.80;1.10;;;-3.00;99.90;;;;;;4972716;28;20030;-69
2022/03/28 09:45:58;;;;;;;1.55;1.30;;;-3.20;99.90;;;;;;4973848;28;20117;-69
2022/03/28 09:48:26;;;;;;;1.67;1.20;;;-3.30;99.90;;;;;;4974245;28;20022;-67
2022/03/28 09:51:05;;;;;;;1.88;1.10;;;-3.10;99.90;;;;;;4973807;28;20030;-70
2022/03/28 09:53:36;;;;;;;3.38;1.10;;;-2.10;99.90;;;;;;4982683;28;20050;-69
2022/03/28 09:56:07;;;;;;;1.20;1.10;;;-2.40;99.90;;;;;;4973572;28;20023;-70
2022/03/28 09:59:04;;;;;;;1.38;1.20;;;-2.80;99.90;;;;;;4973594;28;20119;-69
2022/03/28 10:01:43;;;;;;;2.75;1.17;;;-3.00;99.90;;;;;;4963676;28;20379;-69
2022/03/28 10:04:11;;;;;;;1.58;1.15;;;-3.10;99.90;;;;;;4961062;28;20646;-69
2022/03/28 10:06:38;;;;;;;4.07;1.30;;;-3.30;99.90;;;;;;4956776;28;20046;-69
2022/03/28 10:09:05;;;;;;;2.55;1.33;;;-3.30;99.90;;;;;;4965317;28;20414;-69
2022/03/28 10:11:31;;;;;;;4.07;1.40;;;-3.30;99.90;;;;;;4972977;28;20093;-69
2022/03/28 10:13:57;;;;;;;3.47;1.15;;;-3.30;99.90;;;;;;4972430;28;20023;-70
2022/03/28 10:16:23;;;;;;;1.48;1.38;;;-3.30;99.90;;;;;;4972685;28;20038;-70
2022/03/28 10:18:50;;;;;;;2.15;1.25;;;-3.30;99.90;;;;;;4972405;28;20019;-69
2022/03/28 10:21:19;;;;;;;3.92;1.30;;;-3.30;99.90;;;;;;4972509;28;20449;-72
2022/03/28 10:24:07;;;;;;;1.35;1.13;;;-3.30;99.90;;;;;;4955487;28;20027;-74
2022/03/28 10:26:39;;;;;;;5.30;1.33;;;-3.20;99.90;;;;;;4953478;28;20035;-73
2022/03/28 10:29:12;;;;;;;2.45;1.40;;;-3.20;99.90;;;;;;4961979;28;20421;-73
2022/03/28 10:32:01;;;;;;;1.70;1.20;;;-3.30;99.90;;;;;;4956549;28;20106;-72
2022/03/28 10:34:48;;;;;;;4.10;1.20;;;-3.30;99.90;;;;;;4953561;28;20102;-72
2022/03/28 10:37:36;;;;;;;3.25;1.30;;;-3.20;99.90;;;;;;4953258;28;20015;-73
2022/03/28 10:40:19;;;;;;;1.13;1.00;;;-3.00;99.90;;;;;;4953267;28;20118;-73
2022/03/28 10:42:46;;;;;;;2.47;1.60;;;-2.90;99.90;;;;;;4958927;28;20433;-73
2022/03/28 10:45:18;;;;;;;1.67;0.98;;;-2.80;99.90;;;;;;4953176;28;20105;-73
2022/03/28 10:47:55;;;;;;;1.02;0.95;;;-2.80;99.90;;;;;;4956775;28;20023;-73
2022/03/28 10:50:34;;;;;;;1.42;1.05;;;-2.80;99.90;;;;;;4959329;28;20451;-73
2022/03/28 10:53:25;;;;;;;3.53;1.20;;;-2.80;99.90;;;;;;4955908;28;20435;-73
2022/03/28 10:55:53;;;;;;;1.23;1.10;;;-2.90;99.90;;;;;;4965401;28;20023;-73
2022/03/28 10:58:22;;;;;;;2.15;1.00;;;-2.80;99.90;;;;;;4962213;28;20046;-72
2022/03/28 11:01:13;;;;;;;1.85;1.00;;;-2.90;99.90;;;;;;4964004;28;20034;-71
2022/03/28 11:03:58;;;;;;;1.60;1.15;;;-2.90;99.90;;;;;;4968543;28;20031;-74
2022/03/28 11:07:06;;;;;;;1.13;1.00;;;-2.90;99.90;;;;;;4969700;28;20027;-73
2022/03/28 11:09:41;;;;;;;1.27;1.17;;;-2.80;99.90;;;;;;4972120;28;20031;-73
2022/03/28 11:12:17;;;;;;;1.30;1.20;;;-2.70;99.90;;;;;;4967037;28;20035;-73
2022/03/28 11:15:05;;;;;;;1.05;1.00;;;-2.70;99.90;;;;;;4963934;28;20023;-75
2022/03/28 11:17:35;;;;;;;2.25;1.10;;;-2.70;99.90;;;;;;4958796;28;20533;-74
2022/03/28 11:20:23;;;;;;;2.85;1.20;;;-2.60;99.90;;;;;;4959768;28;20097;-75
2022/03/28 11:22:49;;;;;;;2.47;1.05;;;-2.80;99.90;;;;;;4959235;28;20031;-74
2022/03/28 11:25:33;;;;;;;2.42;1.17;;;-2.70;99.90;;;;;;4969789;28;20065;-73
2022/03/28 11:28:03;;;;;;;1.15;1.00;;;-2.60;99.90;;;;;;4963321;28;20030;-74
2022/03/28 11:30:29;;;;;;;1.27;1.17;;;-2.60;99.90;;;;;;4965593;28;20422;-74
2022/03/28 11:32:56;;;;;;;1.45;0.90;;;-2.60;99.90;;;;;;4969686;28;20027;-74
2022/03/28 11:35:21;;;;;;;2.55;1.20;;;-2.60;99.90;;;;;;4961210;28;20114;-74
2022/03/28 11:37:48;;;;;;;2.95;1.30;;;-2.60;99.90;;;;;;4966565;28;20066;-74
2022/03/28 11:40:14;;;;;;;0.90;0.90;;;-2.50;99.90;;;;;;4961812;28;20517;-74
2022/03/28 11:42:45;;;;;;;1.13;1.02;;;-2.60;99.90;;;;;;4976074;28;20146;-74
2022/03/28 11:45:12;;;;;;;1.40;1.10;;;-2.60;99.90;;;;;;4976253;28;20051;-75
2022/03/28 11:47:48;;;;;;;1.55;1.25;;;-2.60;99.90;;;;;;4975918;28;20015;-74
2022/03/28 11:50:14;;;;;;;2.58;1.30;;;-2.50;99.90;;;;;;4972884;28;20035;-76
2022/03/28 11:52:40;;;;;;;2.15;1.13;;;-2.40;99.90;;;;;;4972098;28;20023;-74
2022/03/28 11:55:24;;;;;;;1.20;1.10;;;-2.40;99.90;;;;;;4975587;28;20054;-74
2022/03/28 12:00:39;;;;;;;0.85;0.85;;;-2.50;99.90;;;;;;4956270;29;20151;-71
2022/03/28 12:03:05;;;;;;;1.05;1.00;;;-2.50;99.90;;;;;;4956183;28;20098;-73
2022/03/28 12:05:46;;;;;;;1.17;1.10;;;-2.10;99.90;;;;;;4956075;28;20065;-73
2022/03/28 12:08:15;;;;;;;;;;;-1.80;99.90;;;;;;4956320;28;20023;-72
2022/03/28 12:10:51;;;;;;;1.40;0.90;;;-2.10;99.90;;;;;;4956020;28;19973;-69
2022/03/28 12:13:22;;;;;;;1.00;1.00;;;-2.10;99.90;;;;;;4956173;28;20028;-69
2022/03/28 12:15:52;;;;;;;2.75;1.05;;;-2.20;99.90;;;;;;4956050;28;20106;-67
2022/03/28 12:18:20;;;;;;;2.80;0.93;;;-1.90;99.90;;;;;;4955136;28;20557;-69
2022/03/28 12:20:52;;;;;;;2.47;1.05;;;-1.80;99.90;;;;;;4955791;28;20419;-69
2022/03/28 12:23:20;;;;;;;2.38;1.15;;;-1.60;99.90;;;;;;4955826;28;20109;-67
2022/03/28 12:26:00;;;;;;;1.77;1.08;;;-1.90;99.90;;;;;;4955904;28;20182;-66
2022/03/28 12:28:29;;;;;;;3.35;1.10;;;-2.00;99.90;;;;;;4956370;28;20027;-69
2022/03/28 12:30:57;;;;;;;0.90;0.90;;;-1.70;99.90;;;;;;4955729;28;20768;-70
2022/03/28 12:33:30;;;;;;;1.10;1.10;;;-1.40;99.90;;;;;;4956100;28;20024;-69
2022/03/28 12:35:59;;;;;;;2.78;1.35;;;-1.40;99.90;;;;;;4955244;28;20478;-73
2022/03/28 12:38:56;;;;;;;1.10;1.00;;;-1.50;99.90;;;;;;4954572;29;20075;-68
2022/03/28 12:41:22;;;;;;;5.22;1.10;;;-1.70;98.80;;;;;;4958161;28;20075;-69
2022/03/28 12:43:49;;;;;;;1.88;1.00;;;-1.90;99.10;;;;;;4955773;29;20051;-70
2022/03/28 12:46:16;;;;;;;6.03;1.00;;;-1.90;98.60;;;;;;4955653;28;20406;-70
2022/03/28 12:48:52;;;;;;;1.05;1.00;;;-2.00;97.50;;;;;;4966438;28;20023;-70
2022/03/28 12:51:34;;;;;;;2.40;1.00;;;-2.10;95.10;;;;;;4974542;28;20066;-70
2022/03/28 12:54:11;;;;;;;0.70;0.70;;;-2.10;95.60;;;;;;4975106;28;20067;-70
2022/03/28 12:56:49;;;;;;;2.63;1.08;;;-2.10;93.10;;;;;;4975148;28;20477;-70
2022/03/28 12:59:35;;;;;;;1.00;1.00;;;-2.20;93.80;;;;;;4974956;28;20027;-69
2022/03/28 13:02:08;;;;;;;1.90;0.98;;;-2.20;94.60;;;;;;4974805;28;20031;-69
2022/03/28 13:04:54;;;;;;;1.55;1.13;;;-2.10;95.60;;;;;;4969216;28;20119;-69
2022/03/28 13:07:23;;;;;;;3.45;1.30;;;-2.00;97.10;;;;;;4965721;28;20023;-69
2022/03/28 13:10:07;;;;;;;1.15;0.95;;;-1.90;97.30;;;;;;4955426;28;20037;-69
2022/03/28 13:12:40;;;;;;;1.42;0.95;;;-2.00;93.50;;;;;;4974070;28;20110;-69
2022/03/28 13:15:16;;;;;;;3.90;1.40;;;-2.00;93.30;;;;;;4971220;28;20022;-69
2022/03/28 13:17:46;;;;;;;2.58;1.17;;;-2.00;92.10;;;;;;4970435;28;20027;-69
2022/03/28 13:20:22;;;;;;;2.03;1.17;;;-2.10;90.50;;;;;;4968463;28;20042;-69
2022/03/28 13:22:51;;;;;;;3.55;1.63;;;-2.00;91.70;;;;;;4967810;28;20309;-69
2022/03/28 13:25:20;;;;;;;2.92;1.00;;;-1.90;90.80;;;;;;4963058;28;20486;-69
2022/03/28 13:28:01;;;;;;;2.80;1.20;;;-2.00;86.00;;;;;;4964645;28;20092;-70
2022/03/28 13:30:47;;;;;;;2.03;1.10;;;-2.00;85.20;;;;;;4969350;28;20042;-70
2022/03/28 13:33:17;;;;;;;2.28;0.98;;;-2.00;84.50;;;;;;4970137;28;20041;-69
2022/03/28 13:35:45;;;;;;;1.15;1.10;;;-2.00;81.50;;;;;;4972056;28;20022;-69
2022/03/28 13:38:13;;;;;;;2.03;1.20;;;-2.00;83.10;;;;;;4969911;28;20039;-69
2022/03/28 13:40:42;;;;;;;4.13;1.35;;;-1.90;85.10;;;;;;4970817;28;20031;-69
2022/03/28 13:43:08;;;;;;;2.80;1.15;;;-1.90;83.80;;;;;;4970790;28;20534;-69
2022/03/28 13:45:35;;;;;;;1.83;1.05;;;-1.90;85.00;;;;;;4970647;28;20144;-68
2022/03/28 13:48:04;;;;;;;1.50;1.10;;;-1.80;87.00;;;;;;4971287;28;20019;-69
2022/03/28 13:50:31;;;;;;;1.20;1.10;;;-1.70;89.10;;;;;;4973266;28;20027;-66
2022/03/28 13:53:01;;;;;;;1.45;1.10;;;-1.80;88.60;;;;;;4973322;28;20609;-68
2022/03/28 13:55:27;;;;;;;1.38;1.20;;;-1.80;89.80;;;;;;4973593;28;20113;-69
2022/03/28 13:57:53;;;;;;;3.25;1.15;;;-1.80;90.10;;;;;;4973728;28;20383;-68
2022/03/28 14:00:21;;;;;;;1.20;1.10;;;-1.80;90.60;;;;;;4972368;28;20018;-68
2022/03/28 14:02:47;;;;;;;1.88;1.00;;;-1.80;91.00;;;;;;4973117;28;20031;-68
2022/03/28 14:05:13;;;;;;;1.30;1.20;;;-1.80;90.60;;;;;;4967821;28;20113;-68